sensor_id;sensor_type;location;lat;lon;timestamp;pressure;altitude;pressure_sealevel;temperature
67966;BMP280;54749;47.850;9.002;2024-02-14T00:00:08;96404.41;;;1.26
67966;BMP280;54749;47.850;9.002;2024-02-14T00:03:05;96406.91;;;1.26
67966;BMP280;54749;47.850;9.002;2024-02-14T00:05:33;96411.88;;;1.26
67966;BMP280;54749;47.850;9.002;2024-02-14T00:08:00;96413.50;;;1.27
67966;BMP280;54749;47.850;9.002;2024-02-14T00:10:27;96419.50;;;1.22
67966;BMP280;54749;47.850;9.002;2024-02-14T00:12:55;96419.59;;;1.19
67966;BMP280;54749;47.850;9.002;2024-02-14T00:15:22;96415.47;;;1.18
67966;BMP280;54749;47.850;9.002;2024-02-14T00:17:51;96422.91;;;1.20
67966;BMP280;54749;47.850;9.002;2024-02-14T00:20:18;96412.09;;;1.21
67966;BMP280;54749;47.850;9.002;2024-02-14T00:22:47;96409.47;;;1.25
67966;BMP280;54749;47.850;9.002;2024-02-14T00:25:14;96408.41;;;1.30
67966;BMP280;54749;47.850;9.002;2024-02-14T00:27:46;96411.66;;;1.34
67966;BMP280;54749;47.850;9.002;2024-02-14T00:30:13;96399.09;;;1.37
67966;BMP280;54749;47.850;9.002;2024-02-14T00:32:40;96400.41;;;1.46
67966;BMP280;54749;47.850;9.002;2024-02-14T00:35:08;96412.53;;;1.55
67966;BMP280;54749;47.850;9.002;2024-02-14T00:37:36;96412.28;;;1.62
67966;BMP280;54749;47.850;9.002;2024-02-14T00:40:04;96416.31;;;1.65
67966;BMP280;54749;47.850;9.002;2024-02-14T00:42:36;96408.75;;;1.68
67966;BMP280;54749;47.850;9.002;2024-02-14T00:45:06;96408.53;;;1.74
67966;BMP280;54749;47.850;9.002;2024-02-14T00:47:37;96420.91;;;1.76
67966;BMP280;54749;47.850;9.002;2024-02-14T00:50:05;96420.66;;;1.82
67966;BMP280;54749;47.850;9.002;2024-02-14T00:52:32;96429.66;;;1.86
67966;BMP280;54749;47.850;9.002;2024-02-14T00:54:59;96423.72;;;1.90
67966;BMP280;54749;47.850;9.002;2024-02-14T00:57:30;96422.09;;;1.89
67966;BMP280;54749;47.850;9.002;2024-02-14T00:59:58;96422.03;;;1.91
67966;BMP280;54749;47.850;9.002;2024-02-14T01:02:28;96423.50;;;1.96
67966;BMP280;54749;47.850;9.002;2024-02-14T01:04:55;96425.16;;;1.95
67966;BMP280;54749;47.850;9.002;2024-02-14T01:07:22;96437.63;;;1.95
67966;BMP280;54749;47.850;9.002;2024-02-14T01:09:50;96441.78;;;1.95
67966;BMP280;54749;47.850;9.002;2024-02-14T01:12:17;96433.03;;;1.85
67966;BMP280;54749;47.850;9.002;2024-02-14T01:14:44;96435.47;;;1.87
67966;BMP280;54749;47.850;9.002;2024-02-14T01:17:12;96445.38;;;1.88
67966;BMP280;54749;47.850;9.002;2024-02-14T01:19:39;96442.69;;;1.94
67966;BMP280;54749;47.850;9.002;2024-02-14T01:22:06;96439.13;;;1.99
67966;BMP280;54749;47.850;9.002;2024-02-14T01:24:35;96448.00;;;2.08
67966;BMP280;54749;47.850;9.002;2024-02-14T01:27:03;96444.75;;;2.06
67966;BMP280;54749;47.850;9.002;2024-02-14T01:29:30;96439.75;;;2.06
67966;BMP280;54749;47.850;9.002;2024-02-14T01:31:58;96444.94;;;2.00
67966;BMP280;54749;47.850;9.002;2024-02-14T01:34:25;96435.78;;;2.00
67966;BMP280;54749;47.850;9.002;2024-02-14T01:36:52;96429.91;;;2.03
67966;BMP280;54749;47.850;9.002;2024-02-14T01:39:20;96442.28;;;2.04
67966;BMP280;54749;47.850;9.002;2024-02-14T01:41:49;96438.81;;;2.08
67966;BMP280;54749;47.850;9.002;2024-02-14T01:44:16;96435.38;;;2.12
67966;BMP280;54749;47.850;9.002;2024-02-14T01:46:44;96443.00;;;2.08
67966;BMP280;54749;47.850;9.002;2024-02-14T01:49:12;96440.88;;;1.97
67966;BMP280;54749;47.850;9.002;2024-02-14T01:51:40;96439.53;;;1.89
67966;BMP280;54749;47.850;9.002;2024-02-14T01:54:10;96444.69;;;1.85
67966;BMP280;54749;47.850;9.002;2024-02-14T01:56:39;96449.97;;;1.76
67966;BMP280;54749;47.850;9.002;2024-02-14T01:59:07;96445.91;;;1.74
67966;BMP280;54749;47.850;9.002;2024-02-14T02:01:35;96447.44;;;1.77
67966;BMP280;54749;47.850;9.002;2024-02-14T02:04:03;96444.84;;;1.80
67966;BMP280;54749;47.850;9.002;2024-02-14T02:06:31;96430.63;;;1.82
67966;BMP280;54749;47.850;9.002;2024-02-14T02:08:59;96436.44;;;1.83
67966;BMP280;54749;47.850;9.002;2024-02-14T02:11:27;96427.25;;;1.85
67966;BMP280;54749;47.850;9.002;2024-02-14T02:13:55;96434.75;;;1.83
67966;BMP280;54749;47.850;9.002;2024-02-14T02:16:22;96420.66;;;1.82
67966;BMP280;54749;47.850;9.002;2024-02-14T02:18:52;96421.66;;;1.78
67966;BMP280;54749;47.850;9.002;2024-02-14T02:21:19;96432.50;;;1.77
67966;BMP280;54749;47.850;9.002;2024-02-14T02:23:50;96429.88;;;1.80
67966;BMP280;54749;47.850;9.002;2024-02-14T02:26:18;96419.06;;;1.81
67966;BMP280;54749;47.850;9.002;2024-02-14T02:28:45;96427.28;;;1.83
67966;BMP280;54749;47.850;9.002;2024-02-14T02:31:13;96424.03;;;1.81
67966;BMP280;54749;47.850;9.002;2024-02-14T02:33:40;96421.75;;;1.75
67966;BMP280;54749;47.850;9.002;2024-02-14T02:36:07;96418.56;;;1.72
67966;BMP280;54749;47.850;9.002;2024-02-14T02:38:36;96412.22;;;1.64
67966;BMP280;54749;47.850;9.002;2024-02-14T02:41:04;96413.09;;;1.63
67966;BMP280;54749;47.850;9.002;2024-02-14T02:43:34;96415.56;;;1.63
67966;BMP280;54749;47.850;9.002;2024-02-14T02:46:02;96418.03;;;1.64
67966;BMP280;54749;47.850;9.002;2024-02-14T02:48:28;96419.53;;;1.68
67966;BMP280;54749;47.850;9.002;2024-02-14T02:50:56;96422.03;;;1.68
67966;BMP280;54749;47.850;9.002;2024-02-14T02:53:24;96432.91;;;1.66
67966;BMP280;54749;47.850;9.002;2024-02-14T02:55:51;96418.19;;;1.60
67966;BMP280;54749;47.850;9.002;2024-02-14T02:58:20;96430.84;;;1.54
67966;BMP280;54749;47.850;9.002;2024-02-14T03:00:48;96422.66;;;1.51
67966;BMP280;54749;47.850;9.002;2024-02-14T03:03:20;96412.94;;;1.43
67966;BMP280;54749;47.850;9.002;2024-02-14T03:05:49;96423.88;;;1.39
67966;BMP280;54749;47.850;9.002;2024-02-14T03:08:16;96420.72;;;1.35
67966;BMP280;54749;47.850;9.002;2024-02-14T03:10:43;96429.09;;;1.32
67966;BMP280;54749;47.850;9.002;2024-02-14T03:13:12;96426.66;;;1.31
67966;BMP280;54749;47.850;9.002;2024-02-14T03:15:44;96415.97;;;1.29
67966;BMP280;54749;47.850;9.002;2024-02-14T03:18:13;96417.66;;;1.27
67966;BMP280;54749;47.850;9.002;2024-02-14T03:20:41;96421.84;;;1.26
67966;BMP280;54749;47.850;9.002;2024-02-14T03:23:08;96424.28;;;1.28
67966;BMP280;54749;47.850;9.002;2024-02-14T03:25:35;96424.28;;;1.28
67966;BMP280;54749;47.850;9.002;2024-02-14T03:28:03;96426.66;;;1.31
67966;BMP280;54749;47.850;9.002;2024-02-14T03:30:36;96430.66;;;1.35
67966;BMP280;54749;47.850;9.002;2024-02-14T03:33:03;96420.72;;;1.35
67966;BMP280;54749;47.850;9.002;2024-02-14T03:35:31;96419.75;;;1.39
67966;BMP280;54749;47.850;9.002;2024-02-14T03:38:00;96429.50;;;1.44
67966;BMP280;54749;47.850;9.002;2024-02-14T03:40:28;96429.19;;;1.53
67966;BMP280;54749;47.850;9.002;2024-02-14T03:42:57;96432.19;;;1.62
67966;BMP280;54749;47.850;9.002;2024-02-14T03:45:24;96433.56;;;1.71
67966;BMP280;54749;47.850;9.002;2024-02-14T03:47:51;96437.25;;;1.83
67966;BMP280;54749;47.850;9.002;2024-02-14T03:50:19;96446.78;;;1.95
67966;BMP280;54749;47.850;9.002;2024-02-14T03:52:46;96449.19;;;1.98
67966;BMP280;54749;47.850;9.002;2024-02-14T03:55:13;96451.72;;;1.96
67966;BMP280;54749;47.850;9.002;2024-02-14T03:57:41;96461.00;;;1.93
67966;BMP280;54749;47.850;9.002;2024-02-14T04:00:09;96461.00;;;1.93
67966;BMP280;54749;47.850;9.002;2024-02-14T04:02:39;96462.50;;;1.97
67966;BMP280;54749;47.850;9.002;2024-02-14T04:05:08;96451.56;;;2.01
67966;BMP280;54749;47.850;9.002;2024-02-14T04:07:35;96468.16;;;2.02
67966;BMP280;54749;47.850;9.002;2024-02-14T04:10:05;96461.41;;;2.04
67966;BMP280;54749;47.850;9.002;2024-02-14T04:12:32;96460.34;;;2.10
67966;BMP280;54749;47.850;9.002;2024-02-14T04:15:00;96461.69;;;2.19
67966;BMP280;54749;47.850;9.002;2024-02-14T04:17:27;96462.22;;;2.27
67966;BMP280;54749;47.850;9.002;2024-02-14T04:19:55;96455.22;;;2.36
67966;BMP280;54749;47.850;9.002;2024-02-14T04:22:22;96454.09;;;2.44
67966;BMP280;54749;47.850;9.002;2024-02-14T04:24:49;96455.50;;;2.51
67966;BMP280;54749;47.850;9.002;2024-02-14T04:27:16;96450.22;;;2.58
67966;BMP280;54749;47.850;9.002;2024-02-14T04:29:47;96445.88;;;2.63
67966;BMP280;54749;47.850;9.002;2024-02-14T04:32:14;96444.84;;;2.68
67966;BMP280;54749;47.850;9.002;2024-02-14T04:34:42;96433.91;;;2.71
67966;BMP280;54749;47.850;9.002;2024-02-14T04:37:11;96430.56;;;2.72
67966;BMP280;54749;47.850;9.002;2024-02-14T04:39:41;96427.16;;;2.73
67966;BMP280;54749;47.850;9.002;2024-02-14T04:42:09;96432.16;;;2.73
67966;BMP280;54749;47.850;9.002;2024-02-14T04:44:36;96445.44;;;2.73
67966;BMP280;54749;47.850;9.002;2024-02-14T04:47:04;96450.38;;;2.75
67966;BMP280;54749;47.850;9.002;2024-02-14T04:49:32;96452.25;;;2.70
67966;BMP280;54749;47.850;9.002;2024-02-14T04:51:59;96467.09;;;2.73
67966;BMP280;54749;47.850;9.002;2024-02-14T04:54:27;96463.72;;;2.74
67966;BMP280;54749;47.850;9.002;2024-02-14T04:56:55;96453.00;;;2.72
67966;BMP280;54749;47.850;9.002;2024-02-14T04:59:27;96459.03;;;2.66
67966;BMP280;54749;47.850;9.002;2024-02-14T05:01:54;96462.72;;;2.57
67966;BMP280;54749;47.850;9.002;2024-02-14T05:04:23;96458.78;;;2.51
67966;BMP280;54749;47.850;9.002;2024-02-14T05:06:51;96450.94;;;2.60
67966;BMP280;54749;47.850;9.002;2024-02-14T05:09:25;96457.81;;;2.55
67966;BMP280;54749;47.850;9.002;2024-02-14T05:11:52;96464.75;;;2.47
67966;BMP280;54749;47.850;9.002;2024-02-14T05:14:19;96473.22;;;2.44
67966;BMP280;54749;47.850;9.002;2024-02-14T05:16:47;96476.56;;;2.43
67966;BMP280;54749;47.850;9.002;2024-02-14T05:19:14;96479.03;;;2.44
67966;BMP280;54749;47.850;9.002;2024-02-14T05:21:41;96478.00;;;2.49
67966;BMP280;54749;47.850;9.002;2024-02-14T05:24:09;96474.47;;;2.55
67966;BMP280;54749;47.850;9.002;2024-02-14T05:26:36;96480.03;;;2.61
67966;BMP280;54749;47.850;9.002;2024-02-14T05:29:03;96482.44;;;2.64
67966;BMP280;54749;47.850;9.002;2024-02-14T05:31:43;96483.94;;;2.68
67966;BMP280;54749;47.850;9.002;2024-02-14T05:34:11;96489.44;;;2.76
67966;BMP280;54749;47.850;9.002;2024-02-14T05:36:38;96492.59;;;2.80
67966;BMP280;54749;47.850;9.002;2024-02-14T05:39:05;96494.03;;;2.86
67966;BMP280;54749;47.850;9.002;2024-02-14T05:41:33;96496.34;;;2.90
67966;BMP280;54749;47.850;9.002;2024-02-14T05:44:01;96494.63;;;2.92
67966;BMP280;54749;47.850;9.002;2024-02-14T05:46:28;96496.13;;;2.96
67966;BMP280;54749;47.850;9.002;2024-02-14T05:48:56;96495.94;;;3.00
67966;BMP280;54749;47.850;9.002;2024-02-14T05:51:24;96499.13;;;3.04
67966;BMP280;54749;47.850;9.002;2024-02-14T05:53:52;96492.38;;;3.07
67966;BMP280;54749;47.850;9.002;2024-02-14T05:56:19;96489.75;;;3.10
67966;BMP280;54749;47.850;9.002;2024-02-14T05:58:46;96495.63;;;3.08
67966;BMP280;54749;47.850;9.002;2024-02-14T06:01:13;96481.47;;;3.08
67966;BMP280;54749;47.850;9.002;2024-02-14T06:03:41;96495.53;;;3.11
67966;BMP280;54749;47.850;9.002;2024-02-14T06:06:10;96498.78;;;3.13
67966;BMP280;54749;47.850;9.002;2024-02-14T06:08:37;96493.69;;;3.15
67966;BMP280;54749;47.850;9.002;2024-02-14T06:11:04;96489.44;;;3.17
67966;BMP280;54749;47.850;9.002;2024-02-14T06:13:31;96492.06;;;3.14
67966;BMP280;54749;47.850;9.002;2024-02-14T06:15:59;96511.09;;;3.17
67966;BMP280;54749;47.850;9.002;2024-02-14T06:18:26;96516.78;;;3.20
67966;BMP280;54749;47.850;9.002;2024-02-14T06:20:53;96509.91;;;3.25
67966;BMP280;54749;47.850;9.002;2024-02-14T06:23:21;96509.81;;;3.28
67966;BMP280;54749;47.850;9.002;2024-02-14T06:25:47;96509.69;;;3.31
67966;BMP280;54749;47.850;9.002;2024-02-14T06:28:15;96515.38;;;3.34
67966;BMP280;54749;47.850;9.002;2024-02-14T06:30:42;96515.53;;;3.30
67966;BMP280;54749;47.850;9.002;2024-02-14T06:33:09;96518.84;;;3.31
67966;BMP280;54749;47.850;9.002;2024-02-14T06:35:36;96529.53;;;3.34
67966;BMP280;54749;47.850;9.002;2024-02-14T06:38:04;96526.03;;;3.38
67966;BMP280;54749;47.850;9.002;2024-02-14T06:40:32;96533.31;;;3.44
67966;BMP280;54749;47.850;9.002;2024-02-14T06:43:00;96534.91;;;3.46
67966;BMP280;54749;47.850;9.002;2024-02-14T06:45:28;96530.44;;;3.52
67966;BMP280;54749;47.850;9.002;2024-02-14T06:47:55;96527.59;;;3.61
67966;BMP280;54749;47.850;9.002;2024-02-14T06:50:23;96543.22;;;3.66
67966;BMP280;54749;47.850;9.002;2024-02-14T06:52:53;96538.09;;;3.69
67966;BMP280;54749;47.850;9.002;2024-02-14T06:55:20;96539.59;;;3.73
67966;BMP280;54749;47.850;9.002;2024-02-14T06:57:47;96535.22;;;3.78
67966;BMP280;54749;47.850;9.002;2024-02-14T07:00:14;96549.09;;;3.84
67966;BMP280;54749;47.850;9.002;2024-02-14T07:02:42;96548.78;;;3.92
67966;BMP280;54749;47.850;9.002;2024-02-14T07:05:10;96547.25;;;3.89
67966;BMP280;54749;47.850;9.002;2024-02-14T07:07:41;96544.41;;;3.97
67966;BMP280;54749;47.850;9.002;2024-02-14T07:10:08;96525.72;;;4.05
67966;BMP280;54749;47.850;9.002;2024-02-14T07:12:36;96532.69;;;4.17
67966;BMP280;54749;47.850;9.002;2024-02-14T07:15:04;96533.19;;;4.24
67966;BMP280;54749;47.850;9.002;2024-02-14T07:17:32;96536.81;;;4.37
67966;BMP280;54749;47.850;9.002;2024-02-14T07:20:01;96518.63;;;4.52
67966;BMP280;54749;47.850;9.002;2024-02-14T07:22:28;96518.56;;;4.71
67966;BMP280;54749;47.850;9.002;2024-02-14T07:24:57;96521.94;;;4.88
67966;BMP280;54749;47.850;9.002;2024-02-14T07:27:24;96522.47;;;4.94
67966;BMP280;54749;47.850;9.002;2024-02-14T07:29:51;96522.25;;;4.99
67966;BMP280;54749;47.850;9.002;2024-02-14T07:32:20;96526.13;;;5.06
67966;BMP280;54749;47.850;9.002;2024-02-14T07:34:47;96522.59;;;5.09
67966;BMP280;54749;47.850;9.002;2024-02-14T07:37:14;96516.97;;;5.23
67966;BMP280;54749;47.850;9.002;2024-02-14T07:39:45;96512.25;;;5.33
67966;BMP280;54749;47.850;9.002;2024-02-14T07:42:13;96511.09;;;5.40
67966;BMP280;54749;47.850;9.002;2024-02-14T07:44:40;96513.28;;;5.46
67966;BMP280;54749;47.850;9.002;2024-02-14T07:47:08;96527.91;;;5.55
67966;BMP280;54749;47.850;9.002;2024-02-14T07:49:35;96529.66;;;5.71
67966;BMP280;54749;47.850;9.002;2024-02-14T07:52:03;96533.84;;;5.87
67966;BMP280;54749;47.850;9.002;2024-02-14T07:54:30;96544.47;;;6.08
67966;BMP280;54749;47.850;9.002;2024-02-14T07:56:58;96536.22;;;6.38
67966;BMP280;54749;47.850;9.002;2024-02-14T07:59:25;96533.25;;;6.78
67966;BMP280;54749;47.850;9.002;2024-02-14T08:01:54;96525.72;;;7.96
67966;BMP280;54749;47.850;9.002;2024-02-14T08:04:21;96521.78;;;9.80
67966;BMP280;54749;47.850;9.002;2024-02-14T08:06:49;96525.41;;;10.62
67966;BMP280;54749;47.850;9.002;2024-02-14T08:09:16;96529.81;;;10.83
67966;BMP280;54749;47.850;9.002;2024-02-14T08:11:44;96520.44;;;10.73
67966;BMP280;54749;47.850;9.002;2024-02-14T08:14:11;96529.56;;;10.63
67966;BMP280;54749;47.850;9.002;2024-02-14T08:16:39;96524.72;;;10.60
67966;BMP280;54749;47.850;9.002;2024-02-14T08:19:06;96525.91;;;10.67
67966;BMP280;54749;47.850;9.002;2024-02-14T08:21:34;96519.53;;;11.33
67966;BMP280;54749;47.850;9.002;2024-02-14T08:24:01;96516.81;;;11.92
67966;BMP280;54749;47.850;9.002;2024-02-14T08:26:29;96510.91;;;12.25
67966;BMP280;54749;47.850;9.002;2024-02-14T08:28:56;96515.63;;;12.74
67966;BMP280;54749;47.850;9.002;2024-02-14T08:31:23;96506.00;;;13.72
67966;BMP280;54749;47.850;9.002;2024-02-14T08:33:50;96508.72;;;14.61
67966;BMP280;54749;47.850;9.002;2024-02-14T08:36:18;96516.69;;;15.35
67966;BMP280;54749;47.850;9.002;2024-02-14T08:38:46;96503.66;;;15.95
67966;BMP280;54749;47.850;9.002;2024-02-14T08:41:15;96502.47;;;16.71
67966;BMP280;54749;47.850;9.002;2024-02-14T08:43:42;96510.50;;;17.56
67966;BMP280;54749;47.850;9.002;2024-02-14T08:46:13;96506.88;;;18.44
67966;BMP280;54749;47.850;9.002;2024-02-14T08:48:42;96513.88;;;19.41
67966;BMP280;54749;47.850;9.002;2024-02-14T08:51:16;96517.66;;;19.62
67966;BMP280;54749;47.850;9.002;2024-02-14T08:53:44;96522.88;;;19.12
67966;BMP280;54749;47.850;9.002;2024-02-14T08:56:13;96518.88;;;18.26
67966;BMP280;54749;47.850;9.002;2024-02-14T08:58:41;96536.72;;;17.23
67966;BMP280;54749;47.850;9.002;2024-02-14T09:01:09;96535.31;;;16.39
67966;BMP280;54749;47.850;9.002;2024-02-14T09:03:44;96534.53;;;16.11
67966;BMP280;54749;47.850;9.002;2024-02-14T09:06:17;96524.88;;;16.23
67966;BMP280;54749;47.850;9.002;2024-02-14T09:08:48;96525.31;;;16.73
67966;BMP280;54749;47.850;9.002;2024-02-14T09:11:18;96523.00;;;16.98
67966;BMP280;54749;47.850;9.002;2024-02-14T09:13:45;96525.63;;;17.41
67966;BMP280;54749;47.850;9.002;2024-02-14T09:16:18;96530.22;;;18.07
67966;BMP280;54749;47.850;9.002;2024-02-14T09:18:45;96521.66;;;17.29
67966;BMP280;54749;47.850;9.002;2024-02-14T09:21:13;96522.16;;;16.52
67966;BMP280;54749;47.850;9.002;2024-02-14T09:23:46;96529.91;;;15.77
67966;BMP280;54749;47.850;9.002;2024-02-14T09:26:14;96538.16;;;15.42
67966;BMP280;54749;47.850;9.002;2024-02-14T09:28:43;96542.22;;;15.15
67966;BMP280;54749;47.850;9.002;2024-02-14T09:31:10;96539.66;;;15.06
67966;BMP280;54749;47.850;9.002;2024-02-14T09:33:39;96543.09;;;14.96
67966;BMP280;54749;47.850;9.002;2024-02-14T09:36:08;96532.22;;;14.74
67966;BMP280;54749;47.850;9.002;2024-02-14T09:38:35;96545.56;;;14.27
67966;BMP280;54749;47.850;9.002;2024-02-14T09:43:46;96542.34;;;13.42
67966;BMP280;54749;47.850;9.002;2024-02-14T09:46:14;96553.34;;;13.21
67966;BMP280;54749;47.850;9.002;2024-02-14T09:48:45;96548.63;;;12.85
67966;BMP280;54749;47.850;9.002;2024-02-14T09:51:13;96537.78;;;12.72
67966;BMP280;54749;47.850;9.002;2024-02-14T09:53:41;96550.34;;;12.63
67966;BMP280;54749;47.850;9.002;2024-02-14T09:56:10;96549.09;;;12.79
67966;BMP280;54749;47.850;9.002;2024-02-14T09:58:38;96547.13;;;12.72
67966;BMP280;54749;47.850;9.002;2024-02-14T10:01:07;96540.28;;;12.51
67966;BMP280;54749;47.850;9.002;2024-02-14T10:03:34;96545.34;;;12.51
67966;BMP280;54749;47.850;9.002;2024-02-14T10:06:02;96535.75;;;12.43
67966;BMP280;54749;47.850;9.002;2024-02-14T10:08:32;96537.19;;;12.69
67966;BMP280;54749;47.850;9.002;2024-02-14T10:10:59;96545.41;;;13.04
67966;BMP280;54749;47.850;9.002;2024-02-14T10:13:27;96546.06;;;13.17
67966;BMP280;54749;47.850;9.002;2024-02-14T10:15:56;96539.38;;;13.27
67966;BMP280;54749;47.850;9.002;2024-02-14T10:18:23;96548.59;;;13.49
67966;BMP280;54749;47.850;9.002;2024-02-14T10:20:57;96533.69;;;13.45
67966;BMP280;54749;47.850;9.002;2024-02-14T10:23:27;96536.94;;;13.77
67966;BMP280;54749;47.850;9.002;2024-02-14T10:25:54;96531.50;;;14.43
67966;BMP280;54749;47.850;9.002;2024-02-14T10:28:23;96524.66;;;15.12
67966;BMP280;54749;47.850;9.002;2024-02-14T10:31:02;96525.47;;;15.70
67966;BMP280;54749;47.850;9.002;2024-02-14T10:33:32;96534.94;;;15.97
67966;BMP280;54749;47.850;9.002;2024-02-14T10:36:00;96537.75;;;16.40
67966;BMP280;54749;47.850;9.002;2024-02-14T10:38:33;96536.06;;;16.67
67966;BMP280;54749;47.850;9.002;2024-02-14T10:41:02;96528.31;;;16.59
67966;BMP280;54749;47.850;9.002;2024-02-14T10:43:31;96536.16;;;16.21
67966;BMP280;54749;47.850;9.002;2024-02-14T10:46:00;96526.50;;;16.06
67966;BMP280;54749;47.850;9.002;2024-02-14T10:48:31;96517.84;;;16.53
67966;BMP280;54749;47.850;9.002;2024-02-14T10:51:04;96513.41;;;16.55
67966;BMP280;54749;47.850;9.002;2024-02-14T10:53:34;96521.34;;;16.43
67966;BMP280;54749;47.850;9.002;2024-02-14T10:56:02;96520.03;;;16.20
67966;BMP280;54749;47.850;9.002;2024-02-14T10:58:30;96524.47;;;16.00
67966;BMP280;54749;47.850;9.002;2024-02-14T11:00:58;96526.16;;;15.90
67966;BMP280;54749;47.850;9.002;2024-02-14T11:03:25;96513.88;;;16.23
67966;BMP280;54749;47.850;9.002;2024-02-14T11:05:54;96513.28;;;16.47
67966;BMP280;54749;47.850;9.002;2024-02-14T11:08:28;96512.59;;;16.45
67966;BMP280;54749;47.850;9.002;2024-02-14T11:11:01;96510.03;;;16.54
67966;BMP280;54749;47.850;9.002;2024-02-14T11:13:29;96506.56;;;16.55
67966;BMP280;54749;47.850;9.002;2024-02-14T11:16:02;96511.59;;;16.83
67966;BMP280;54749;47.850;9.002;2024-02-14T11:18:31;96512.28;;;16.76
67966;BMP280;54749;47.850;9.002;2024-02-14T11:21:15;96505.16;;;17.15
67966;BMP280;54749;47.850;9.002;2024-02-14T11:23:53;96507.34;;;17.79
67966;BMP280;54749;47.850;9.002;2024-02-14T11:26:21;96489.13;;;18.08
67966;BMP280;54749;47.850;9.002;2024-02-14T11:28:59;96484.16;;;18.07
67966;BMP280;54749;47.850;9.002;2024-02-14T11:31:32;96494.44;;;18.15
67966;BMP280;54749;47.850;9.002;2024-02-14T11:34:03;96497.66;;;17.66
67966;BMP280;54749;47.850;9.002;2024-02-14T11:36:32;96503.53;;;16.97
67966;BMP280;54749;47.850;9.002;2024-02-14T11:39:05;96502.47;;;16.17
67966;BMP280;54749;47.850;9.002;2024-02-14T11:41:35;96503.25;;;15.24
67966;BMP280;54749;47.850;9.002;2024-02-14T11:44:05;96497.56;;;14.82
67966;BMP280;54749;47.850;9.002;2024-02-14T11:46:35;96497.13;;;14.77
67966;BMP280;54749;47.850;9.002;2024-02-14T11:49:04;96493.53;;;15.00
67966;BMP280;54749;47.850;9.002;2024-02-14T11:51:35;96490.00;;;14.91
67966;BMP280;54749;47.850;9.002;2024-02-14T11:54:05;96494.66;;;14.87
67966;BMP280;54749;47.850;9.002;2024-02-14T11:56:38;96486.63;;;14.62
67966;BMP280;54749;47.850;9.002;2024-02-14T11:59:06;96493.75;;;14.68
67966;BMP280;54749;47.850;9.002;2024-02-14T12:01:35;96500.22;;;14.72
67966;BMP280;54749;47.850;9.002;2024-02-14T12:04:04;96499.09;;;14.65
67966;BMP280;54749;47.850;9.002;2024-02-14T12:06:32;96496.66;;;14.14
67966;BMP280;54749;47.850;9.002;2024-02-14T12:09:02;96488.81;;;14.26
67966;BMP280;54749;47.850;9.002;2024-02-14T12:11:33;96490.31;;;14.29
67966;BMP280;54749;47.850;9.002;2024-02-14T12:14:01;96491.31;;;14.37
67966;BMP280;54749;47.850;9.002;2024-02-14T12:16:30;96492.06;;;14.28
67966;BMP280;54749;47.850;9.002;2024-02-14T12:19:09;96485.56;;;14.15
67966;BMP280;54749;47.850;9.002;2024-02-14T12:21:39;96487.22;;;14.25
67966;BMP280;54749;47.850;9.002;2024-02-14T12:24:09;96488.13;;;14.24
67966;BMP280;54749;47.850;9.002;2024-02-14T12:26:38;96482.44;;;14.32
67966;BMP280;54749;47.850;9.002;2024-02-14T12:29:06;96482.19;;;14.35
67966;BMP280;54749;47.850;9.002;2024-02-14T12:31:34;96478.03;;;14.54
67966;BMP280;54749;47.850;9.002;2024-02-14T12:34:03;96489.31;;;14.01
67966;BMP280;54749;47.850;9.002;2024-02-14T12:36:33;96475.88;;;13.79
67966;BMP280;54749;47.850;9.002;2024-02-14T12:39:01;96479.91;;;13.81
67966;BMP280;54749;47.850;9.002;2024-02-14T12:41:31;96472.44;;;14.00
67966;BMP280;54749;47.850;9.002;2024-02-14T12:43:59;96470.81;;;13.99
67966;BMP280;54749;47.850;9.002;2024-02-14T12:46:27;96473.91;;;13.82
67966;BMP280;54749;47.850;9.002;2024-02-14T12:48:54;96466.91;;;13.95
67966;BMP280;54749;47.850;9.002;2024-02-14T12:51:22;96465.88;;;13.97
67966;BMP280;54749;47.850;9.002;2024-02-14T12:53:55;96461.28;;;13.91
67966;BMP280;54749;47.850;9.002;2024-02-14T12:56:23;96469.16;;;13.88
67966;BMP280;54749;47.850;9.002;2024-02-14T12:58:50;96455.53;;;13.89
67966;BMP280;54749;47.850;9.002;2024-02-14T13:01:18;96461.00;;;13.85
67966;BMP280;54749;47.850;9.002;2024-02-14T13:03:45;96463.63;;;13.84
67966;BMP280;54749;47.850;9.002;2024-02-14T13:06:12;96459.56;;;13.92
67966;BMP280;54749;47.850;9.002;2024-02-14T13:08:41;96464.56;;;13.83
67966;BMP280;54749;47.850;9.002;2024-02-14T13:11:09;96459.69;;;13.80
67966;BMP280;54749;47.850;9.002;2024-02-14T13:13:36;96463.78;;;13.71
67966;BMP280;54749;47.850;9.002;2024-02-14T13:16:04;96462.16;;;13.70
67966;BMP280;54749;47.850;9.002;2024-02-14T13:18:33;96451.63;;;13.55
67966;BMP280;54749;47.850;9.002;2024-02-14T13:21:03;96452.53;;;13.54
67966;BMP280;54749;47.850;9.002;2024-02-14T13:23:30;96451.38;;;13.58
67966;BMP280;54749;47.850;9.002;2024-02-14T13:25:58;96450.63;;;13.66
67966;BMP280;54749;47.850;9.002;2024-02-14T13:28:25;96448.13;;;13.56
67966;BMP280;54749;47.850;9.002;2024-02-14T13:30:53;96444.94;;;13.43
67966;BMP280;54749;47.850;9.002;2024-02-14T13:33:22;96450.66;;;13.56
67966;BMP280;54749;47.850;9.002;2024-02-14T13:35:50;96447.94;;;13.68
67966;BMP280;54749;47.850;9.002;2024-02-14T13:38:18;96442.50;;;13.72
67966;BMP280;54749;47.850;9.002;2024-02-14T13:40:45;96436.03;;;13.79
67966;BMP280;54749;47.850;9.002;2024-02-14T13:43:12;96435.97;;;13.90
67966;BMP280;54749;47.850;9.002;2024-02-14T13:45:45;96440.03;;;13.92
67966;BMP280;54749;47.850;9.002;2024-02-14T13:48:13;96435.16;;;13.69
67966;BMP280;54749;47.850;9.002;2024-02-14T13:50:41;96424.47;;;13.86
67966;BMP280;54749;47.850;9.002;2024-02-14T13:53:11;96420.94;;;13.98
67966;BMP280;54749;47.850;9.002;2024-02-14T13:55:38;96425.34;;;13.96
67966;BMP280;54749;47.850;9.002;2024-02-14T13:58:08;96432.41;;;13.92
67966;BMP280;54749;47.850;9.002;2024-02-14T14:00:41;96433.97;;;13.84
67966;BMP280;54749;47.850;9.002;2024-02-14T14:03:09;96437.13;;;13.66
67966;BMP280;54749;47.850;9.002;2024-02-14T14:05:37;96443.03;;;13.56
67966;BMP280;54749;47.850;9.002;2024-02-14T14:08:04;96439.69;;;13.55
67966;BMP280;54749;47.850;9.002;2024-02-14T14:10:32;96433.03;;;13.54
67966;BMP280;54749;47.850;9.002;2024-02-14T14:12:59;96436.28;;;13.46
67966;BMP280;54749;47.850;9.002;2024-02-14T14:15:26;96441.94;;;13.38
67966;BMP280;54749;47.850;9.002;2024-02-14T14:17:56;96430.56;;;13.33
67966;BMP280;54749;47.850;9.002;2024-02-14T14:20:24;96431.13;;;13.36
67966;BMP280;54749;47.850;9.002;2024-02-14T14:22:51;96432.97;;;13.34
67966;BMP280;54749;47.850;9.002;2024-02-14T14:25:19;96439.06;;;13.43